Time;durP1;ratioP1;P1;durP2;ratioP2;P2;SDS_P1;SDS_P2;PMS_P1;PMS_P2;Temp;Humidity;BMP_temperature;BMP_pressure;BME280_temperature;BME280_humidity;BME280_pressure;Samples;Min_cycle;Max_cycle;Signal;HPM_P1;HPM_P2
2022/04/13 00:02:03;;;;;;;19.38;10.38;;;12.90;99.90;;;;;;4992174;28;20125;-83
2022/04/13 00:04:28;;;;;;;17.20;10.40;;;13.00;99.90;;;;;;4996572;28;20431;-83
2022/04/13 00:06:54;;;;;;;14.65;10.10;;;13.10;99.90;;;;;;4999255;28;20045;-83
2022/04/13 00:09:20;;;;;;;16.08;10.80;;;13.10;99.90;;;;;;4984636;28;20066;-83
2022/04/13 00:11:46;;;;;;;16.67;10.88;;;13.10;99.90;;;;;;4989156;28;20038;-83
2022/04/13 00:14:11;;;;;;;16.75;11.05;;;13.10;99.90;;;;;;4987313;28;20038;-83
2022/04/13 00:16:37;;;;;;;15.55;10.10;;;13.10;99.90;;;;;;5004900;28;20053;-87
2022/04/13 00:19:03;;;;;;;14.02;9.93;;;13.00;99.90;;;;;;4984971;28;20073;-87
2022/04/13 00:21:29;;;;;;;18.40;12.27;;;13.00;99.90;;;;;;4988160;28;20096;-87
2022/04/13 00:23:56;;;;;;;16.33;10.60;;;13.00;99.90;;;;;;4991662;28;20045;-87
2022/04/13 00:26:23;;;;;;;17.27;11.43;;;13.00;99.90;;;;;;4996169;28;20174;-87
2022/04/13 00:28:49;;;;;;;17.10;11.60;;;12.90;99.90;;;;;;4975869;28;20038;-87
2022/04/13 00:31:14;;;;;;;14.43;11.50;;;12.90;99.90;;;;;;4988762;28;20038;-87
2022/04/13 00:33:40;;;;;;;19.48;12.20;;;12.80;99.90;;;;;;4984446;28;20488;-86
2022/04/13 00:36:06;;;;;;;17.15;11.98;;;12.80;99.90;;;;;;4993962;28;20049;-86
2022/04/13 00:38:32;;;;;;;19.70;12.15;;;12.90;99.90;;;;;;5002844;28;20042;-86
2022/04/13 00:41:01;;;;;;;16.77;12.20;;;12.80;99.90;;;;;;5003522;28;20135;-86
2022/04/13 00:43:26;;;;;;;22.17;12.13;;;12.80;99.90;;;;;;4975222;28;20190;-86
2022/04/13 00:45:52;;;;;;;18.80;13.05;;;12.70;99.90;;;;;;4988421;28;20121;-86
2022/04/13 00:48:29;;;;;;;17.88;12.82;;;12.70;99.90;;;;;;4997207;28;20038;-87
2022/04/13 00:50:55;;;;;;;22.38;13.57;;;12.60;99.90;;;;;;4997281;28;20381;-87
2022/04/13 00:53:23;;;;;;;18.38;13.55;;;12.60;99.90;;;;;;5003665;28;20048;-87
2022/04/13 00:55:50;;;;;;;18.75;12.90;;;12.60;99.90;;;;;;4993517;28;20042;-87
2022/04/13 00:58:19;;;;;;;20.00;13.88;;;12.60;99.90;;;;;;4997800;28;20049;-87
2022/04/13 01:00:49;;;;;;;21.27;14.05;;;12.50;99.90;;;;;;5001463;28;20038;-87
2022/04/13 01:03:18;;;;;;;20.25;13.65;;;12.50;99.90;;;;;;5000619;28;20042;-87
2022/04/13 01:05:48;;;;;;;22.15;14.10;;;12.40;99.90;;;;;;4999914;28;20069;-86
2022/04/13 01:08:15;;;;;;;25.40;15.15;;;12.50;99.90;;;;;;4982974;28;20064;-86
2022/04/13 01:10:44;;;;;;;23.52;14.73;;;12.50;99.90;;;;;;5003243;28;20039;-86
2022/04/13 01:13:11;;;;;;;22.42;15.38;;;12.40;99.90;;;;;;5001232;28;20048;-86
2022/04/13 01:15:37;;;;;;;24.65;15.70;;;12.40;99.90;;;;;;4992749;28;20041;-86
2022/04/13 01:18:03;;;;;;;24.77;15.40;;;12.40;99.90;;;;;;5004439;28;20050;-85
2022/04/13 01:20:29;;;;;;;24.63;14.77;;;12.30;99.90;;;;;;5011386;28;20066;-86
2022/04/13 01:22:55;;;;;;;23.23;14.50;;;12.30;99.90;;;;;;5003499;28;20184;-87
2022/04/13 01:25:21;;;;;;;23.88;15.05;;;12.30;99.90;;;;;;4987351;28;20113;-87
2022/04/13 01:27:47;;;;;;;25.95;15.68;;;12.20;99.90;;;;;;5009680;28;20038;-87
2022/04/13 01:30:14;;;;;;;25.77;15.60;;;12.20;99.90;;;;;;4999561;28;20397;-87
2022/04/13 01:32:40;;;;;;;26.58;16.35;;;12.20;99.90;;;;;;4991436;28;20389;-87
2022/04/13 01:35:06;;;;;;;26.02;15.45;;;12.20;99.90;;;;;;4990805;28;20046;-87
2022/04/13 01:37:32;;;;;;;28.50;16.23;;;12.20;99.90;;;;;;5002457;28;20099;-87
2022/04/13 01:39:58;;;;;;;28.88;16.45;;;12.10;99.90;;;;;;5001723;28;20459;-83
2022/04/13 01:42:24;;;;;;;23.48;15.38;;;12.10;99.90;;;;;;5004762;28;20061;-83
2022/04/13 01:44:50;;;;;;;24.02;15.00;;;12.20;99.90;;;;;;4997740;28;20026;-83
2022/04/13 01:47:15;;;;;;;23.10;14.75;;;12.20;99.90;;;;;;4992184;28;20484;-83
2022/04/13 01:49:42;;;;;;;25.95;16.10;;;12.20;99.90;;;;;;4967288;28;20559;-83
2022/04/13 01:52:09;;;;;;;25.10;16.13;;;12.10;99.90;;;;;;5002467;28;20160;-83
2022/04/13 01:54:34;;;;;;;28.42;15.75;;;12.10;99.90;;;;;;5007484;28;20354;-83
2022/04/13 01:57:01;;;;;;;23.58;16.55;;;12.10;99.90;;;;;;4974405;28;20119;-84
2022/04/13 01:59:26;;;;;;;26.10;16.42;;;12.10;99.90;;;;;;5001716;28;20042;-84
2022/04/13 02:01:52;;;;;;;26.20;16.20;;;12.10;99.90;;;;;;4986535;28;20129;-84
2022/04/13 02:04:20;;;;;;;24.27;15.40;;;12.10;99.90;;;;;;5009136;28;20536;-84
2022/04/13 02:06:47;;;;;;;26.10;15.77;;;12.20;99.90;;;;;;5016482;28;21419;-84
2022/04/13 02:09:14;;;;;;;23.67;14.63;;;12.20;99.90;;;;;;5000248;28;20049;-85
2022/04/13 02:11:40;;;;;;;26.45;15.65;;;12.20;99.90;;;;;;4990554;28;20049;-87
2022/04/13 02:14:07;;;;;;;22.35;15.93;;;12.20;99.90;;;;;;4991354;28;20045;-87
2022/04/13 02:16:32;;;;;;;24.63;16.15;;;12.20;99.90;;;;;;5037193;28;20056;-87
2022/04/13 02:18:58;;;;;;;23.83;15.23;;;12.20;99.90;;;;;;5029460;28;20143;-87
2022/04/13 02:21:24;;;;;;;28.48;16.65;;;12.20;99.90;;;;;;5030772;28;20493;-87
2022/04/13 02:23:49;;;;;;;24.80;15.93;;;12.20;99.90;;;;;;4991051;28;20038;-87
2022/04/13 02:26:15;;;;;;;24.13;15.40;;;12.20;99.90;;;;;;4990504;28;20045;-87
2022/04/13 02:28:42;;;;;;;33.25;16.27;;;12.20;99.90;;;;;;4977241;28;20034;-87
2022/04/13 02:31:08;;;;;;;27.85;16.10;;;12.20;99.90;;;;;;4990919;28;20037;-87
2022/04/13 02:33:33;;;;;;;24.63;16.38;;;12.10;99.90;;;;;;5003473;28;20503;-86
2022/04/13 02:35:59;;;;;;;23.42;16.27;;;12.10;99.90;;;;;;5002123;28;20041;-87
2022/04/13 02:38:25;;;;;;;27.88;16.15;;;12.10;99.90;;;;;;5001895;28;20073;-87
2022/04/13 02:40:52;;;;;;;23.70;15.77;;;12.10;99.90;;;;;;4999894;28;20069;-87
2022/04/13 02:43:18;;;;;;;28.65;16.65;;;12.00;99.90;;;;;;5014541;28;20068;-87
2022/04/13 02:45:44;;;;;;;24.20;16.67;;;12.00;99.90;;;;;;5016851;28;20480;-87
2022/04/13 02:48:09;;;;;;;25.20;17.98;;;12.00;99.90;;;;;;4997120;28;20092;-87
2022/04/13 02:50:35;;;;;;;23.88;17.55;;;11.90;99.90;;;;;;5000146;28;20042;-87
2022/04/13 02:53:01;;;;;;;28.13;18.35;;;11.80;99.90;;;;;;5002250;28;20038;-87
2022/04/13 02:55:26;;;;;;;31.75;17.80;;;11.80;99.90;;;;;;4992839;28;20041;-87
2022/04/13 02:57:52;;;;;;;31.50;18.20;;;11.70;99.90;;;;;;5004015;28;20049;-87
2022/04/13 03:00:18;;;;;;;26.25;17.27;;;11.70;99.90;;;;;;4992267;28;20042;-87
2022/04/13 03:02:44;;;;;;;28.00;18.00;;;11.60;99.90;;;;;;4995430;28;20042;-84
2022/04/13 03:05:10;;;;;;;31.17;18.90;;;11.60;99.90;;;;;;5000237;28;20073;-84
2022/04/13 03:07:37;;;;;;;29.58;17.85;;;11.50;99.90;;;;;;4993296;28;20317;-84
2022/04/13 03:10:04;;;;;;;27.77;17.52;;;11.40;99.90;;;;;;5002431;28;20514;-84
2022/04/13 03:12:29;;;;;;;26.02;17.15;;;11.40;99.90;;;;;;4998242;28;20457;-83
2022/04/13 03:14:55;;;;;;;26.33;17.50;;;11.30;99.90;;;;;;5005020;28;20042;-83
2022/04/13 03:17:21;;;;;;;25.80;17.90;;;11.20;99.90;;;;;;5004556;28;20049;-83
2022/04/13 03:19:47;;;;;;;28.65;18.23;;;11.30;99.90;;;;;;4994967;28;20471;-87
2022/04/13 03:22:12;;;;;;;25.88;17.13;;;11.20;99.90;;;;;;5004358;28;20088;-87
2022/04/13 03:24:38;;;;;;;27.13;18.00;;;11.10;99.90;;;;;;4993649;28;20439;-87
2022/04/13 03:27:04;;;;;;;26.15;17.25;;;11.00;99.90;;;;;;5023107;28;20081;-87
2022/04/13 03:29:29;;;;;;;29.73;18.75;;;11.00;99.90;;;;;;5007122;28;20068;-87
2022/04/13 03:31:55;;;;;;;29.35;18.58;;;10.90;99.90;;;;;;4995198;28;20507;-87
2022/04/13 03:34:21;;;;;;;30.00;19.17;;;10.90;99.90;;;;;;5004367;28;20046;-87
2022/04/13 03:36:50;;;;;;;31.52;18.58;;;10.90;99.90;;;;;;4994911;28;20042;-87
2022/04/13 03:39:16;;;;;;;32.80;18.65;;;10.90;99.90;;;;;;4997918;28;20077;-87
2022/04/13 03:41:42;;;;;;;29.20;19.25;;;10.90;99.90;;;;;;4990932;28;20396;-87
2022/04/13 03:44:09;;;;;;;28.85;18.90;;;11.00;99.90;;;;;;5002720;28;20044;-87
2022/04/13 03:46:35;;;;;;;26.40;17.58;;;11.00;99.90;;;;;;4993141;28;20035;-87
2022/04/13 03:49:00;;;;;;;28.25;18.17;;;11.00;99.90;;;;;;4983052;28;20037;-87
2022/04/13 03:51:26;;;;;;;30.33;19.35;;;11.00;99.90;;;;;;5004437;28;20473;-87
2022/04/13 03:53:52;;;;;;;27.52;18.13;;;11.10;99.90;;;;;;5000965;28;20080;-87
2022/04/13 03:56:18;;;;;;;28.42;18.48;;;11.10;99.90;;;;;;5002915;28;20042;-87
2022/04/13 03:58:44;;;;;;;28.40;18.70;;;11.10;99.90;;;;;;5011163;28;20439;-87
2022/04/13 04:01:10;;;;;;;28.42;17.98;;;11.10;99.90;;;;;;5007990;28;20045;-87
2022/04/13 04:03:36;;;;;;;30.00;18.52;;;11.10;99.90;;;;;;5006404;28;20377;-87
2022/04/13 04:06:03;;;;;;;30.52;19.58;;;11.00;99.90;;;;;;5005944;28;20120;-87
2022/04/13 04:08:29;;;;;;;28.73;19.15;;;11.10;99.90;;;;;;5000759;28;20372;-86
2022/04/13 04:10:55;;;;;;;28.88;19.27;;;11.10;99.90;;;;;;5002740;28;20085;-86
2022/04/13 04:13:21;;;;;;;32.30;19.65;;;11.10;99.90;;;;;;4991444;28;20419;-86
2022/04/13 04:15:47;;;;;;;30.20;19.35;;;11.10;99.90;;;;;;4999466;28;20409;-86
2022/04/13 04:18:13;;;;;;;30.30;18.65;;;11.20;99.90;;;;;;4967308;28;20052;-86
2022/04/13 04:20:39;;;;;;;31.50;18.75;;;11.10;99.90;;;;;;4998420;28;20065;-86
2022/04/13 04:23:05;;;;;;;28.67;19.27;;;11.20;99.90;;;;;;5027482;28;20069;-86
2022/04/13 04:25:30;;;;;;;32.63;19.50;;;11.20;99.90;;;;;;5017612;28;20038;-84
2022/04/13 04:27:56;;;;;;;28.13;19.05;;;11.20;99.90;;;;;;5004312;28;20030;-84
2022/04/13 04:30:22;;;;;;;31.10;18.83;;;11.10;99.90;;;;;;5000361;28;20041;-84
2022/04/13 04:32:47;;;;;;;30.92;20.33;;;11.10;99.90;;;;;;4998073;28;20045;-84
2022/04/13 04:35:13;;;;;;;31.10;19.65;;;11.10;99.90;;;;;;5000007;28;20034;-84
2022/04/13 04:37:39;;;;;;;31.08;19.52;;;11.10;99.90;;;;;;4984553;28;20038;-84
2022/04/13 04:40:06;;;;;;;33.90;19.65;;;11.10;99.90;;;;;;5000840;28;20096;-84
2022/04/13 04:42:42;;;;;;;30.25;18.95;;;11.10;99.90;;;;;;5032527;28;20084;-84
2022/04/13 04:45:08;;;;;;;;;;;11.10;99.90;;;;;;4996287;28;20101;-84
2022/04/13 04:47:34;;;;;;;27.43;18.17;;;11.20;99.90;;;;;;5000026;28;19918;-84
2022/04/13 04:49:59;;;;;;;31.38;18.30;;;11.20;99.90;;;;;;5007665;28;20404;-84
2022/04/13 04:52:25;;;;;;;30.45;18.10;;;11.20;99.90;;;;;;5001728;28;20038;-84
2022/04/13 04:54:51;;;;;;;33.00;19.60;;;11.20;99.90;;;;;;4999513;28;20050;-84
2022/04/13 04:57:16;;;;;;;30.88;18.40;;;11.20;99.90;;;;;;4992247;28;20084;-84
2022/04/13 04:59:42;;;;;;;30.77;19.83;;;11.50;99.90;;;;;;4992731;28;20179;-84
2022/04/13 05:02:08;;;;;;;29.67;18.95;;;11.30;99.90;;;;;;4992939;28;20088;-84
2022/04/13 05:04:33;;;;;;;26.55;18.65;;;11.30;99.90;;;;;;4989476;28;20043;-84
2022/04/13 05:06:59;;;;;;;30.02;19.23;;;11.40;99.90;;;;;;4991144;28;20370;-84
2022/04/13 05:09:25;;;;;;;32.78;19.98;;;11.40;99.90;;;;;;4999680;28;20039;-83
2022/04/13 05:11:51;;;;;;;32.35;20.17;;;11.50;99.90;;;;;;4987932;28;20120;-83
2022/04/13 05:14:18;;;;;;;33.58;20.58;;;11.50;99.90;;;;;;5002270;28;20042;-83
2022/04/13 05:16:44;;;;;;;31.25;21.20;;;11.50;99.90;;;;;;5004389;28;20501;-84
2022/04/13 05:19:10;;;;;;;35.88;20.85;;;11.60;99.90;;;;;;4999580;28;20058;-84
2022/04/13 05:21:35;;;;;;;33.95;21.20;;;11.50;99.90;;;;;;4966358;28;20050;-84
2022/04/13 05:24:01;;;;;;;32.33;20.40;;;11.50;99.90;;;;;;5002082;28;20076;-83
2022/04/13 05:26:27;;;;;;;32.95;21.27;;;11.50;99.90;;;;;;4988205;28;20080;-83
2022/04/13 05:28:52;;;;;;;38.40;21.00;;;11.60;99.90;;;;;;4988276;28;20042;-84
2022/04/13 05:31:18;;;;;;;33.45;20.95;;;11.60;99.90;;;;;;4990215;28;20038;-84
2022/04/13 05:33:44;;;;;;;33.30;21.05;;;11.70;99.90;;;;;;4994254;28;20049;-86
2022/04/13 05:36:10;;;;;;;40.05;22.85;;;11.70;99.90;;;;;;4991358;28;20045;-87
2022/04/13 05:38:36;;;;;;;38.88;21.42;;;11.70;99.90;;;;;;4988590;28;20050;-87
2022/04/13 05:41:01;;;;;;;31.35;21.83;;;11.70;99.90;;;;;;4989875;28;20057;-87
2022/04/13 05:43:33;;;;;;;32.50;20.73;;;11.80;99.90;;;;;;4989678;28;20575;-87
2022/04/13 05:45:59;;;;;;;32.55;20.27;;;11.80;99.90;;;;;;4992605;28;20034;-87
2022/04/13 05:48:24;;;;;;;31.75;20.45;;;11.90;99.90;;;;;;5000696;28;20120;-83
2022/04/13 05:50:50;;;;;;;31.20;20.05;;;11.90;99.90;;;;;;4989586;28;20034;-83
2022/04/13 05:53:17;;;;;;;31.67;20.15;;;12.00;99.90;;;;;;5002839;28;20085;-83
2022/04/13 05:55:42;;;;;;;31.05;20.50;;;12.10;99.90;;;;;;4994257;28;20073;-83
2022/04/13 05:58:08;;;;;;;30.30;20.45;;;12.20;99.90;;;;;;4986343;28;20085;-83
2022/04/13 06:00:34;;;;;;;29.52;20.00;;;12.20;99.90;;;;;;5013816;28;20049;-83
2022/04/13 06:03:00;;;;;;;31.35;19.35;;;12.30;99.90;;;;;;4987882;28;20033;-83
2022/04/13 06:05:26;;;;;;;26.65;19.10;;;12.40;99.90;;;;;;4998805;28;20084;-84
2022/04/13 06:07:53;;;;;;;29.42;20.08;;;12.50;99.90;;;;;;5003637;28;20077;-84
2022/04/13 06:10:19;;;;;;;34.05;20.17;;;12.60;99.90;;;;;;4977460;28;20077;-83
2022/04/13 06:12:47;;;;;;;36.15;20.33;;;12.60;99.90;;;;;;4980832;28;20043;-83
2022/04/13 06:15:13;;;;;;;33.33;19.67;;;12.60;99.90;;;;;;4998120;28;20044;-84
2022/04/13 06:17:39;;;;;;;33.33;19.95;;;12.60;99.90;;;;;;4987506;28;20050;-83
2022/04/13 06:20:06;;;;;;;30.27;19.63;;;12.60;99.90;;;;;;5001577;28;20081;-85
2022/04/13 06:22:36;;;;;;;29.50;19.05;;;12.60;99.90;;;;;;5011009;28;20404;-84
2022/04/13 06:25:03;;;;;;;29.20;19.02;;;12.60;99.90;;;;;;5003320;28;20045;-83
2022/04/13 06:27:28;;;;;;;31.13;18.85;;;12.60;99.90;;;;;;5009305;28;20101;-84
2022/04/13 06:29:54;;;;;;;29.00;19.33;;;12.70;99.90;;;;;;5001094;28;20042;-84
2022/04/13 06:32:20;;;;;;;30.70;18.55;;;12.70;99.90;;;;;;4998565;28;20041;-84
2022/04/13 06:34:46;;;;;;;28.10;19.20;;;12.70;99.90;;;;;;5000382;28;20046;-84
2022/04/13 06:37:11;;;;;;;27.92;18.63;;;12.80;99.90;;;;;;5009171;28;20041;-84
2022/04/13 06:39:37;;;;;;;26.63;18.52;;;12.80;99.90;;;;;;4993879;28;20049;-88
2022/04/13 06:42:03;;;;;;;28.10;18.33;;;12.80;99.90;;;;;;5009463;28;20092;-88
2022/04/13 06:44:29;;;;;;;31.48;17.52;;;12.90;99.90;;;;;;4996497;28;20088;-88
2022/04/13 06:46:55;;;;;;;27.30;17.15;;;13.00;99.90;;;;;;5003984;28;20396;-89
2022/04/13 06:49:21;;;;;;;25.88;16.77;;;13.00;99.90;;;;;;4994991;28;20034;-87
2022/04/13 06:51:47;;;;;;;26.25;16.15;;;13.10;99.90;;;;;;4993969;28;20029;-87
2022/04/13 06:54:12;;;;;;;26.23;15.90;;;13.20;99.90;;;;;;4989879;28;20424;-87
2022/04/13 06:56:39;;;;;;;25.67;16.35;;;13.30;99.90;;;;;;4990107;28;20042;-86
2022/04/13 06:59:06;;;;;;;26.05;16.35;;;13.40;99.90;;;;;;4993769;28;20034;-86
2022/04/13 07:01:32;;;;;;;24.80;15.63;;;13.50;99.90;;;;;;5007072;28;20464;-86
2022/04/13 07:03:57;;;;;;;23.05;15.40;;;13.70;99.90;;;;;;5009308;28;20116;-86
2022/04/13 07:06:23;;;;;;;29.30;14.88;;;13.80;99.90;;;;;;5007420;28;20045;-86
2022/04/13 07:08:49;;;;;;;22.88;13.95;;;13.90;99.90;;;;;;5006538;28;20034;-86
2022/04/13 07:11:14;;;;;;;21.52;13.35;;;14.00;99.90;;;;;;5000819;28;20038;-86
2022/04/13 07:13:40;;;;;;;20.60;13.65;;;14.20;99.90;;;;;;4993964;28;20080;-87
2022/04/13 07:16:06;;;;;;;18.63;13.48;;;14.30;99.90;;;;;;4985490;28;20042;-87
2022/04/13 07:18:34;;;;;;;24.38;13.32;;;14.20;99.90;;;;;;5007153;28;20108;-87
2022/04/13 07:21:01;;;;;;;23.50;12.82;;;14.20;99.90;;;;;;4994001;28;20053;-88
2022/04/13 07:23:26;;;;;;;24.23;12.90;;;14.30;99.90;;;;;;5003904;28;20046;-87
2022/04/13 07:25:52;;;;;;;23.30;12.60;;;14.40;99.90;;;;;;4988236;28;20045;-87
2022/04/13 07:28:18;;;;;;;24.65;13.45;;;14.40;99.90;;;;;;5007863;28;20164;-87
2022/04/13 07:30:44;;;;;;;23.30;12.82;;;14.30;99.90;;;;;;4987898;28;20369;-87
2022/04/13 07:33:09;;;;;;;17.58;11.88;;;14.40;99.90;;;;;;5001642;28;20121;-87
2022/04/13 07:35:35;;;;;;;17.75;11.48;;;14.50;99.90;;;;;;5003461;28;20172;-87
2022/04/13 07:38:01;;;;;;;23.15;11.60;;;14.70;99.90;;;;;;5002781;28;20038;-87
2022/04/13 07:40:27;;;;;;;18.25;12.13;;;14.70;99.90;;;;;;5005956;28;20041;-87
2022/04/13 07:42:52;;;;;;;22.25;12.10;;;15.00;99.90;;;;;;4987871;28;20049;-88
2022/04/13 07:45:18;;;;;;;17.52;11.38;;;15.00;99.90;;;;;;4990905;28;20041;-83
2022/04/13 07:47:44;;;;;;;19.73;11.20;;;15.30;99.90;;;;;;4985305;28;20066;-84
2022/04/13 07:50:13;;;;;;;20.95;11.75;;;15.40;99.90;;;;;;5002234;28;20042;-83
2022/04/13 07:52:41;;;;;;;17.38;10.15;;;15.70;99.90;;;;;;4992467;28;20038;-83
2022/04/13 07:55:09;;;;;;;15.10;10.25;;;16.30;99.90;;;;;;5000467;28;20472;-84
2022/04/13 07:57:36;;;;;;;18.10;9.73;;;17.20;99.90;;;;;;5004071;28;20042;-83
2022/04/13 08:00:04;;;;;;;20.75;10.20;;;18.30;99.90;;;;;;4999779;28;20046;-84
2022/04/13 08:02:32;;;;;;;19.05;10.50;;;19.30;99.90;;;;;;5002004;28;20484;-88
2022/04/13 08:04:58;;;;;;;17.00;9.70;;;19.50;99.90;;;;;;4994047;28;20148;-87
2022/04/13 08:07:24;;;;;;;16.08;8.55;;;19.10;99.90;;;;;;5001749;28;20120;-87
2022/04/13 08:09:50;;;;;;;17.05;9.70;;;19.30;99.90;;;;;;5000869;28;20042;-87
2022/04/13 08:12:16;;;;;;;14.95;9.75;;;19.00;99.90;;;;;;5009046;28;20108;-88
2022/04/13 08:14:41;;;;;;;16.00;10.02;;;19.20;99.90;;;;;;4992332;28;20073;-88
2022/04/13 08:17:07;;;;;;;16.35;9.68;;;18.70;99.90;;;;;;5000525;28;20087;-87
2022/04/13 08:19:33;;;;;;;16.80;10.38;;;19.20;99.90;;;;;;4986519;28;20559;-87
2022/04/13 08:21:59;;;;;;;17.65;10.02;;;19.20;99.90;;;;;;5009071;28;20125;-88
2022/04/13 08:24:25;;;;;;;16.45;10.48;;;19.30;99.90;;;;;;4989329;28;20053;-88
2022/04/13 08:26:50;;;;;;;17.85;11.00;;;19.70;99.90;;;;;;4991788;28;20473;-88
2022/04/13 08:29:16;;;;;;;16.42;10.75;;;19.40;99.90;;;;;;5001287;28;20034;-88
2022/04/13 08:31:42;;;;;;;16.05;10.18;;;19.90;99.90;;;;;;4974974;28;20073;-88
2022/04/13 08:34:07;;;;;;;17.20;10.90;;;19.70;99.90;;;;;;5025582;22;20049;-86
2022/04/13 08:36:33;;;;;;;15.82;11.70;;;19.10;99.90;;;;;;5000145;28;20512;-85
2022/04/13 08:38:59;;;;;;;18.88;11.70;;;18.60;99.90;;;;;;5038459;28;20121;-84
2022/04/13 08:41:47;;;;;;;19.25;11.18;;;17.90;99.90;;;;;;5036302;28;20104;-84
2022/04/13 08:44:46;;;;;;;16.35;11.05;;;17.70;99.90;;;;;;5033173;28;20069;-85
2022/04/13 08:47:15;;;;;;;15.98;10.43;;;18.10;99.90;;;;;;5028199;28;20041;-85
2022/04/13 08:49:44;;;;;;;17.33;9.60;;;18.80;99.90;;;;;;5017708;28;20036;-84
2022/04/13 08:52:13;;;;;;;17.27;11.10;;;20.10;99.90;;;;;;5030818;28;20113;-86
2022/04/13 08:55:09;;;;;;;15.95;10.75;;;20.60;99.90;;;;;;5036937;28;20073;-87
2022/04/13 08:57:37;;;;;;;14.50;9.43;;;20.70;99.90;;;;;;5019342;28;20075;-87
2022/04/13 09:00:31;;;;;;;16.42;9.80;;;20.80;99.90;;;;;;5034804;28;20121;-87
2022/04/13 09:03:23;;;;;;;13.30;9.20;;;22.00;99.90;;;;;;5048998;28;20475;-86
2022/04/13 09:05:52;;;;;;;14.57;9.20;;;22.70;99.70;;;;;;5039032;28;20037;-87
2022/04/13 09:08:19;;;;;;;14.93;8.40;;;22.90;99.10;;;;;;5036727;28;20073;-85
2022/04/13 09:10:47;;;;;;;13.10;8.02;;;24.10;98.80;;;;;;5017128;28;20038;-85
2022/04/13 09:13:15;;;;;;;13.15;7.78;;;24.70;96.70;;;;;;5034186;28;20128;-85
2022/04/13 09:15:42;;;;;;;15.10;8.98;;;25.20;96.30;;;;;;5034216;28;20049;-85
2022/04/13 09:18:08;;;;;;;14.57;9.25;;;25.60;94.60;;;;;;5034887;28;20045;-85
2022/04/13 09:20:35;;;;;;;10.93;7.65;;;24.30;94.00;;;;;;5018001;28;20130;-85
2022/04/13 09:23:01;;;;;;;12.60;7.60;;;24.50;94.30;;;;;;5022884;28;20053;-85
2022/04/13 09:25:29;;;;;;;14.15;7.55;;;24.60;94.10;;;;;;5033870;28;20044;-85
2022/04/13 09:27:56;;;;;;;12.95;7.60;;;25.10;94.00;;;;;;5001982;28;20486;-85
2022/04/13 09:30:22;;;;;;;10.32;7.25;;;25.00;93.80;;;;;;5035953;28;20094;-85
2022/04/13 09:32:50;;;;;;;12.68;7.30;;;25.80;93.40;;;;;;5028273;28;21248;-85
2022/04/13 09:35:17;;;;;;;11.20;6.47;;;25.80;92.60;;;;;;5032788;28;20053;-85
2022/04/13 09:37:44;;;;;;;11.15;7.05;;;25.80;92.30;;;;;;5031599;28;20068;-85
2022/04/13 09:40:10;;;;;;;10.68;7.13;;;24.50;92.70;;;;;;5019901;28;20041;-85
2022/04/13 09:42:37;;;;;;;11.32;6.50;;;23.80;93.50;;;;;;5033742;28;20036;-85
2022/04/13 09:45:03;;;;;;;9.50;6.03;;;24.30;93.80;;;;;;5034549;28;20037;-85
2022/04/13 09:47:33;;;;;;;11.60;5.70;;;25.00;92.50;;;;;;5017929;28;20060;-85
2022/04/13 09:50:00;;;;;;;9.68;5.22;;;25.50;91.40;;;;;;5021876;28;20041;-85
2022/04/13 09:52:32;;;;;;;8.55;5.00;;;25.60;91.50;;;;;;5032912;28;20037;-85
2022/04/13 09:54:58;;;;;;;10.27;5.78;;;26.10;91.00;;;;;;5033470;28;20061;-85
2022/04/13 09:57:25;;;;;;;9.93;5.00;;;25.80;89.90;;;;;;5023797;28;20030;-85
2022/04/13 09:59:59;;;;;;;11.45;5.20;;;26.20;90.40;;;;;;5042469;28;20049;-88
2022/04/13 10:02:35;;;;;;;11.43;5.60;;;26.10;88.40;;;;;;5024608;28;20037;-87
2022/04/13 10:05:03;;;;;;;10.32;4.75;;;25.30;89.00;;;;;;5022201;28;20430;-87
2022/04/13 10:07:28;;;;;;;9.93;5.10;;;25.20;89.50;;;;;;5020158;28;20041;-87
2022/04/13 10:09:54;;;;;;;13.15;5.70;;;25.50;90.00;;;;;;5021235;28;20033;-87
2022/04/13 10:12:20;;;;;;;11.57;5.53;;;23.80;90.60;;;;;;5031231;28;20033;-87
2022/04/13 10:14:46;;;;;;;10.10;5.05;;;23.20;92.00;;;;;;5043183;28;20044;-88
2022/04/13 10:17:13;;;;;;;11.30;5.82;;;24.00;92.30;;;;;;5007923;28;20483;-89
2022/04/13 10:19:40;;;;;;;13.63;5.93;;;24.10;90.80;;;;;;5039291;28;20124;-89
2022/04/13 10:22:06;;;;;;;11.55;6.05;;;23.80;91.80;;;;;;5039462;28;20065;-90
2022/04/13 10:24:37;;;;;;;12.27;6.20;;;22.80;92.10;;;;;;5041937;28;20484;-89
2022/04/13 10:27:03;;;;;;;11.48;6.75;;;22.80;93.50;;;;;;5020989;28;20041;-89
2022/04/13 10:29:30;;;;;;;13.02;5.63;;;22.80;92.80;;;;;;5042216;28;20121;-89
2022/04/13 10:32:13;;;;;;;11.18;6.30;;;22.20;93.90;;;;;;5018094;28;20041;-87
2022/04/13 10:34:41;;;;;;;12.70;6.90;;;20.70;95.40;;;;;;5021369;28;20419;-87
2022/04/13 10:37:10;;;;;;;13.23;7.20;;;20.30;97.10;;;;;;5035612;28;20041;-87
2022/04/13 10:39:36;;;;;;;15.10;7.35;;;20.10;98.10;;;;;;5021468;28;20041;-88
2022/04/13 10:42:03;;;;;;;14.15;6.30;;;19.50;99.30;;;;;;5022659;28;20059;-88
2022/04/13 10:44:32;;;;;;;15.35;6.68;;;19.90;99.50;;;;;;5035609;28;20041;-88
2022/04/13 10:47:03;;;;;;;13.27;7.10;;;20.00;99.20;;;;;;5040790;28;20033;-88
2022/04/13 10:49:38;;;;;;;12.23;6.50;;;20.30;99.00;;;;;;5035865;28;20034;-87
2022/04/13 10:52:09;;;;;;;9.85;5.97;;;20.70;98.50;;;;;;5035676;28;20064;-87
2022/04/13 10:54:40;;;;;;;13.35;5.75;;;21.20;97.70;;;;;;5038576;28;20045;-87
2022/04/13 10:57:06;;;;;;;10.32;5.20;;;21.10;97.70;;;;;;5023556;28;20113;-88
2022/04/13 10:59:42;;;;;;;15.32;6.40;;;21.60;97.10;;;;;;5039485;28;20055;-88
2022/04/13 11:02:21;;;;;;;;;;;21.90;96.60;;;;;;5036343;28;20040;-88
2022/04/13 11:04:48;;;;;;;10.98;4.20;;;20.70;97.20;;;;;;5019962;28;19972;-90
2022/04/13 11:07:20;;;;;;;10.38;4.57;;;20.40;97.60;;;;;;5008173;28;20041;-91
2022/04/13 11:09:48;;;;;;;12.57;4.93;;;19.40;98.60;;;;;;5044889;28;20041;-91
2022/04/13 11:12:14;;;;;;;11.75;5.47;;;19.30;99.20;;;;;;5023509;28;20042;-91
2022/04/13 11:14:58;;;;;;;12.57;5.05;;;18.90;99.80;;;;;;5020543;28;20036;-90
2022/04/13 11:17:26;;;;;;;12.55;5.10;;;18.70;99.90;;;;;;5030800;28;20041;-91
2022/04/13 11:20:15;;;;;;;14.55;5.78;;;18.20;99.90;;;;;;5019092;28;20076;-90
2022/04/13 11:22:40;;;;;;;12.60;4.90;;;18.30;99.90;;;;;;5042894;28;20043;-90
2022/04/13 11:25:06;;;;;;;13.57;6.05;;;18.20;99.90;;;;;;5045968;28;20037;-90
2022/04/13 11:27:52;;;;;;;13.95;5.00;;;17.90;99.90;;;;;;5036068;28;20395;-91
2022/04/13 11:30:18;;;;;;;13.57;4.90;;;17.80;99.90;;;;;;5032366;28;20038;-89
2022/04/13 11:32:45;;;;;;;16.65;5.22;;;17.50;99.90;;;;;;5018402;28;20049;-90
2022/04/13 11:35:26;;;;;;;12.50;4.55;;;17.60;99.90;;;;;;5019072;28;20057;-91
2022/04/13 11:38:08;;;;;;;11.35;4.30;;;17.40;99.90;;;;;;5037555;28;20398;-90
2022/04/13 11:40:34;;;;;;;13.52;5.72;;;17.40;99.90;;;;;;5035368;28;20049;-87
2022/04/13 11:43:02;;;;;;;16.88;5.85;;;17.10;99.90;;;;;;5019932;28;20037;-87
2022/04/13 11:45:29;;;;;;;12.35;5.40;;;16.80;99.90;;;;;;5038735;28;20372;-87
2022/04/13 11:48:03;;;;;;;14.93;5.72;;;16.80;99.90;;;;;;5038843;28;20037;-86
2022/04/13 11:50:36;;;;;;;14.57;6.63;;;16.60;99.90;;;;;;5032167;28;20388;-87
2022/04/13 11:53:05;;;;;;;14.05;6.53;;;16.40;99.90;;;;;;5019340;28;20072;-87
2022/04/13 11:55:42;;;;;;;14.02;6.93;;;16.20;99.90;;;;;;5036998;28;20041;-87
2022/04/13 11:58:07;;;;;;;18.63;8.35;;;16.30;99.90;;;;;;5020851;28;20426;-87
2022/04/13 12:00:41;;;;;;;15.40;7.43;;;16.20;99.90;;;;;;5024282;28;20037;-87
2022/04/13 12:03:12;;;;;;;17.40;8.20;;;16.30;99.90;;;;;;5039458;28;20430;-87
2022/04/13 12:05:40;;;;;;;16.63;7.55;;;16.40;99.90;;;;;;5037245;28;20048;-87
2022/04/13 12:08:18;;;;;;;16.60;7.05;;;16.30;99.90;;;;;;5019333;28;20044;-87
2022/04/13 12:10:49;;;;;;;13.90;6.90;;;16.30;99.90;;;;;;5022458;28;20035;-87
2022/04/13 12:13:15;;;;;;;15.77;7.30;;;16.00;99.90;;;;;;5033708;28;20033;-87
2022/04/13 12:15:53;;;;;;;16.80;7.20;;;15.90;99.90;;;;;;5001888;28;20030;-87
2022/04/13 12:18:29;;;;;;;14.25;7.68;;;15.80;99.90;;;;;;5036169;28;20034;-87
2022/04/13 12:21:06;;;;;;;;;;;15.90;99.90;;;;;;5043485;28;20498;-87
2022/04/13 12:23:35;;;;;;;14.15;7.68;;;16.00;99.90;;;;;;5038020;28;19931;-87
2022/04/13 12:26:02;;;;;;;15.52;7.07;;;15.80;99.90;;;;;;5036344;28;20108;-87
2022/04/13 12:28:28;;;;;;;14.45;6.80;;;15.90;99.90;;;;;;5032543;28;20037;-87
2022/04/13 12:31:04;;;;;;;19.50;7.63;;;16.10;99.90;;;;;;5015872;28;20368;-87
2022/04/13 12:33:31;;;;;;;16.55;7.97;;;16.20;99.90;;;;;;5016950;28;20051;-87